Terminal Aerodrome Forecast
Issued by NWS

Home | Current Version | Previous Version | Graphics & Text | Print | Product List | Glossary On
Versions: 1 2 3 4 5 6 7 8 9 10 11 12 13 14 15 16 17 18 19 20 21 22 23 24 25
000
FTUS43 KICT 241554 AAC
TAFSLN
TAF AMD
KSLN 241554Z 2416/2512 15005KT 6SM BR SCT006 BKN015
      TEMPO 2416/2418 BKN006
     FM241800 17010KT P6SM VCSH SCT015 BKN025=

USA.gov is the U.S. government's official web portal to all federal, state and local government web resources and services.